Birch River, West Virginia
Current Conditions -  °F | °C
As of 5:35 PM on Monday 24 Nov 2014 (Local Time) from KW22 Reporting Station
Clear Clear  
Wind Chill: 64°   Ceiling: Unl
Heat Index: 64°   Visibility: 10mi
Dew Point: 41°   Wind: 12mph
Humidity: 42%   Direction: 230°SW
Pressure: 29.67"   Gusts: 28mph
Location:  38.5°N, 80.75°W
Report Text: KW22 242235Z AUTO 23010G24KT 10SM CLR 18/05 A2967 RMK AO2
Loading
Personal Weather Stations






























Interactive Weather Map New forecast layout! Learn more

10-Day Weather Forecast

Advertisements
Track Severe Weather on mobile